»·PEaware :: AAL1566 KOKC-KDFW

AAL1566 :: KOKC-KDFW

FLIGHT INFORMATION

Flight Status: Arrived
Operator:
American Airlines
More flights by this operator :: More flights under this callsign
Pilot: Drew L. (13237)
Aircraft: BOEING 737-800
(B738)
More flights by this aircraft type
Origin: KOKC Will Rogers World
United States
Destination: KDFW Dallas-Ft Worth Intl
United States
More flights between these airports :: More routes between these airports
Route: MUDDE3 MUDDE RBUKL VKTRY2
File this flight plan on PilotEdge
Remarks: PBN / A1B1C1D1S1S2 DOF / 181009 REG / N806SB OPR / AAL PER / C RMK / TCAS SIMBRIEF
Altitude:
(Current/Filed)
25,000ft
Speed:
(Current/Filed)
448kts
Departed: 09-Oct-18 10:43 AM
Arrived: 09-Oct-18 12:15 PM
Distance/Time
Traveled:
152nm/1:32
Distance/Time
To Go:
Arrived

Flight Plot

Page will automatically refresh every two minutes.

Flight plan parsing failed; only flown route is shown


Map Options




Map Legend


Flown Route
Filed Route
Departure Airport
Arrival Airport
Navaid (VOR, NDB)
Fix

Horizontal Profiles

Position Reports

Time Latitude Longitude Heading Altitude Ground
Speed
09-Oct-18 10:15 35.394484 -97.595588 347 1302ft 0kts
09-Oct-18 10:16 35.394484 -97.595588 347 1303ft 0kts
09-Oct-18 10:17 35.394484 -97.595588 347 1303ft 0kts
09-Oct-18 10:18 35.394484 -97.595588 347 1303ft 0kts
09-Oct-18 10:19 35.394484 -97.595588 347 1303ft 0kts
09-Oct-18 10:20 35.394484 -97.595588 347 1303ft 0kts
09-Oct-18 10:21 35.394484 -97.595588 347 1303ft 0kts
09-Oct-18 10:22 35.394484 -97.595588 347 1303ft 0kts
09-Oct-18 10:23 35.394484 -97.595588 347 1303ft 0kts
09-Oct-18 10:24 35.394205 -97.595534 358 1303ft 2kts
09-Oct-18 10:25 35.393832 -97.595899 90 1303ft 2kts
09-Oct-18 10:26 35.393832 -97.595922 90 1303ft 0kts
09-Oct-18 10:27 35.393832 -97.595922 90 1303ft 0kts
09-Oct-18 10:28 35.393832 -97.595922 90 1303ft 0kts
09-Oct-18 10:29 35.393832 -97.595922 90 1303ft 0kts
09-Oct-18 10:30 35.393832 -97.595922 90 1303ft 0kts
09-Oct-18 10:31 35.393832 -97.595922 90 1303ft 0kts
09-Oct-18 10:32 35.393832 -97.595922 90 1303ft 0kts
09-Oct-18 10:33 35.393832 -97.595922 90 1303ft 0kts
09-Oct-18 10:34 35.393832 -97.595922 90 1303ft 0kts
09-Oct-18 10:35 35.393832 -97.595922 90 1303ft 0kts
09-Oct-18 10:36 35.393832 -97.595922 90 1303ft 0kts
09-Oct-18 10:37 35.393832 -97.595922 90 1303ft 0kts
09-Oct-18 10:38 35.393832 -97.595922 90 1303ft 0kts
09-Oct-18 10:39 35.393832 -97.595922 90 1303ft 0kts
09-Oct-18 10:40 35.393832 -97.595922 90 1303ft 0kts
09-Oct-18 10:41 35.394203 -97.592360 40 1303ft 19kts
09-Oct-18 10:42 35.398823 -97.590634 0 1303ft 35kts
09-Oct-18 10:43 35.403480 -97.588950 183 1303ft 12kts
09-Oct-18 10:44 35.402070 -97.588969 180 1303ft 4kts
09-Oct-18 10:45 35.368345 -97.590084 184 2673ft 183kts
09-Oct-18 10:46 35.309591 -97.590618 180 5820ft 248kts
09-Oct-18 10:47 35.237991 -97.587310 180 10162ft 263kts
09-Oct-18 10:48 35.158397 -97.582499 180 13399ft 307kts
09-Oct-18 10:49 35.070966 -97.577100 180 17002ft 322kts
09-Oct-18 10:50 34.979592 -97.571513 180 20518ft 328kts
09-Oct-18 10:51 34.890112 -97.560392 177 24109ft 322kts
09-Oct-18 10:52 34.799106 -97.558200 182 24805ft 344kts
09-Oct-18 10:53 34.698330 -97.561191 183 24807ft 367kts
09-Oct-18 10:54 34.597240 -97.571511 202 24805ft 365kts
09-Oct-18 10:55 34.528148 -97.662542 230 24816ft 375kts
09-Oct-18 10:56 34.468498 -97.766117 231 24818ft 374kts
09-Oct-18 10:57 34.408704 -97.869640 230 24820ft 374kts
09-Oct-18 10:58 34.349206 -97.972376 231 24820ft 373kts
09-Oct-18 10:59 34.289829 -98.075413 231 24820ft 369kts
09-Oct-18 11:00 34.236129 -98.168077 230 24809ft 307kts
09-Oct-18 11:01 34.190946 -98.245758 229 24800ft 258kts
09-Oct-18 11:02 34.151224 -98.314217 229 24817ft 251kts
09-Oct-18 11:03 34.110533 -98.383936 229 24813ft 253kts
09-Oct-18 11:04 34.070015 -98.452989 228 24810ft 252kts
09-Oct-18 11:05 34.029378 -98.522050 228 24809ft 252kts
09-Oct-18 11:06 33.988898 -98.591007 233 24802ft 252kts
09-Oct-18 11:07 34.029441 -98.660818 351 24799ft 350kts
09-Oct-18 11:08 34.105693 -98.596184 59 24814ft 345kts
09-Oct-18 11:09 34.160854 -98.501808 61 24797ft 343kts
09-Oct-18 11:10 34.215802 -98.407103 60 24796ft 343kts
09-Oct-18 11:11 34.262230 -98.309642 99 24771ft 316kts
09-Oct-18 11:12 34.214118 -98.247567 188 24792ft 247kts
09-Oct-18 11:13 34.162272 -98.300181 226 24817ft 252kts
09-Oct-18 11:14 34.120198 -98.368047 228 24804ft 252kts
09-Oct-18 11:15 34.079123 -98.436772 228 24800ft 252kts
09-Oct-18 11:16 34.038411 -98.505795 228 24802ft 252kts
09-Oct-18 11:17 33.998031 -98.574985 228 24799ft 251kts
09-Oct-18 11:18 33.997698 -98.654581 313 24787ft 322kts
09-Oct-18 11:19 34.082571 -98.631979 54 24828ft 348kts
09-Oct-18 11:20 34.139264 -98.538638 60 24797ft 344kts
09-Oct-18 11:21 34.194196 -98.443988 61 24798ft 343kts
09-Oct-18 11:22 34.249064 -98.349376 60 24800ft 343kts
09-Oct-18 11:23 34.239716 -98.259589 148 24830ft 271kts
09-Oct-18 11:24 34.179766 -98.275601 222 24819ft 250kts
09-Oct-18 11:25 34.118691 -98.289527 150 24825ft 296kts
09-Oct-18 11:26 34.074088 -98.182421 118 24231ft 405kts
09-Oct-18 11:27 34.019992 -98.074917 149 22500ft 375kts
09-Oct-18 11:28 33.947804 -98.024428 156 21021ft 358kts
09-Oct-18 11:29 33.862336 -97.966208 156 19224ft 349kts
09-Oct-18 11:30 33.778600 -97.910850 166 17414ft 332kts
09-Oct-18 11:31 33.689975 -97.910550 193 15619ft 314kts
09-Oct-18 11:32 33.613008 -97.957245 214 13822ft 310kts
09-Oct-18 11:33 33.543880 -98.018737 214 12016ft 304kts
09-Oct-18 11:34 33.475293 -98.074173 193 10997ft 301kts
09-Oct-18 11:35 33.391612 -98.062332 165 10994ft 307kts
09-Oct-18 11:36 33.316853 -98.013279 154 10998ft 290kts
09-Oct-18 11:37 33.249295 -97.965778 154 10995ft 290kts
09-Oct-18 11:38 33.170758 -97.943618 175 11045ft 293kts
09-Oct-18 11:39 33.091937 -97.955204 220 11024ft 315kts
09-Oct-18 11:40 33.021925 -97.995777 169 10978ft 276kts
09-Oct-18 11:41 32.945357 -97.964533 164 10980ft 294kts
09-Oct-18 11:42 32.872722 -97.928203 137 10930ft 297kts
09-Oct-18 11:43 32.876057 -97.827898 74 11009ft 341kts
09-Oct-18 11:44 32.907464 -97.724078 75 10954ft 325kts
09-Oct-18 11:45 32.938676 -97.619093 74 11012ft 338kts
09-Oct-18 11:46 32.969732 -97.515390 74 11019ft 336kts
09-Oct-18 11:47 33.016389 -97.423613 22 11038ft 346kts
09-Oct-18 11:48 33.094676 -97.472525 279 11185ft 350kts
09-Oct-18 11:49 33.055198 -97.551114 181 10889ft 284kts
09-Oct-18 11:50 33.012440 -97.474948 105 11107ft 335kts
09-Oct-18 11:51 32.996902 -97.364839 104 10942ft 347kts
09-Oct-18 11:52 32.982555 -97.255991 104 10222ft 315kts
09-Oct-18 11:53 32.972617 -97.154304 84 9288ft 314kts
09-Oct-18 11:54 33.043457 -97.112543 344 8914ft 327kts
09-Oct-18 11:55 33.140016 -97.139120 345 8508ft 375kts
09-Oct-18 11:56 33.238722 -97.167795 344 8442ft 336kts
09-Oct-18 11:57 33.309325 -97.187231 344 8466ft 288kts
09-Oct-18 11:58 33.381279 -97.228166 272 7649ft 229kts
09-Oct-18 11:59 33.350671 -97.266457 204 6432ft 200kts
09-Oct-18 12:00 33.292230 -97.299609 204 4699ft 210kts
09-Oct-18 12:01 33.248754 -97.324964 204 4038ft 204kts
09-Oct-18 12:02 33.192553 -97.357025 189 3988ft 185kts
09-Oct-18 12:03 33.145798 -97.350329 171 3630ft 157kts
09-Oct-18 12:04 33.109700 -97.342916 170 2948ft 159kts
09-Oct-18 12:05 33.065424 -97.333834 168 1971ft 158kts
09-Oct-18 12:06 33.018446 -97.327234 174 3754ft 187kts
09-Oct-18 12:07 32.956542 -97.315095 152 3938ft 262kts
09-Oct-18 12:08 32.963911 -97.246684 19 4012ft 271kts
09-Oct-18 12:09 33.044737 -97.251465 353 4213ft 287kts
09-Oct-18 12:10 33.121185 -97.257490 14 3874ft 260kts
09-Oct-18 12:11 33.131115 -97.194181 138 3086ft 228kts
09-Oct-18 12:12 33.077055 -97.144109 144 2570ft 234kts
09-Oct-18 12:13 33.032822 -97.103708 142 2825ft 182kts
09-Oct-18 12:14 32.991368 -97.076752 169 2433ft 188kts
09-Oct-18 12:15 32.945599 -97.063834 159 1494ft 168kts
09-Oct-18 12:16 32.899732 -97.054594 178 615ft 85kts
09-Oct-18 12:17 32.896002 -97.054055 156 615ft 0kts
09-Oct-18 12:18 32.896000 -97.054055 156 615ft 0kts

Navigation Log

Ident Type
Flight plan parsing failed, navigation log unavailable